KHUF/HUF METAR and TAF weather

Enter ICAO airport designator
Station Type Date Time Source
KHUF METAR 2020/03/28 08:53 UTC NOAA

KHUF 280853Z 14007KT 7SM FEW040 BKN060 17/16 A2967 RMK AO2 LTG DSNT W SLP045 T01670161 58015


Station Type Date Time Source
KHUF Decoded METAR 2020/03/28 08:53 UTC NOAA

TERRE HAUTE INTERNATIONAL -HULMAN FLD, IN, United States (KHUF) 39-27N 087-19W 179M
Mar 28, 2020 - 04:53 AM EDT / 2020.03.28 0853 UTC
Wind: from the SE (140 degrees) at 8 MPH (7 KT):0
Visibility: 7 mile(s):0
Sky conditions: mostly cloudy
Weather: Lightning observed
Temperature: 62.1 F (16.7 C)
Dew Point: 61.0 F (16.1 C)
Relative Humidity: 96%
Pressure (altimeter): 29.67 in. Hg (1004 hPa)
Pressure tendency: 0.04 inches (1.5 hPa) lower than three hours ago
ob: KHUF 280853Z 14007KT 7SM FEW040 BKN060 17/16 A2967 RMK AO2 LTG DSNT W SLP045 T01670161 58015
cycle: 9

Station Type Date Time Source
KHUF TAF 2020/03/28 06:22 UTC NOAA

TAF KHUF 280520Z 2806/2906 10010KT P6SM VCTS BKN050CB
FM280900 20010KT P6SM VCTS BKN045CB WS020/23040KT
FM281600 21012KT P6SM OVC070
FM281700 20012G21KT P6SM VCTS OVC090CB
FM290000 19014G24KT 6SM -SHRA OVC050
FM290300 20016G30KT 6SM -SHRA OVC025 WS020/21045KT

Example: see airport list